createdAt,value
2017-08-07T00:00:15.396Z,56.4
2017-08-07T00:01:18.166Z,56.4
2017-08-07T00:02:20.584Z,56.4
2017-08-07T00:03:24.353Z,56.4
2017-08-07T00:04:27.109Z,56.4
2017-08-07T00:05:29.888Z,56.3
2017-08-07T00:06:32.639Z,56.4
2017-08-07T00:07:35.398Z,56.4
2017-08-07T00:08:37.826Z,56.4
2017-08-07T00:09:40.936Z,56.4
2017-08-07T00:10:43.685Z,56.4
2017-08-07T00:11:46.100Z,56.4
2017-08-07T00:12:48.860Z,56.5
2017-08-07T00:13:51.277Z,56.4
2017-08-07T00:14:54.020Z,56.5
2017-08-07T00:15:56.775Z,56.5
2017-08-07T00:16:59.185Z,56.5
2017-08-07T00:18:01.596Z,56.4
2017-08-07T00:19:04.700Z,56.5
2017-08-07T00:20:07.113Z,56.5
2017-08-07T00:21:09.528Z,56.4
2017-08-07T00:22:12.287Z,56.5
2017-08-07T00:23:14.696Z,56.5
2017-08-07T00:24:17.453Z,56.5
2017-08-07T00:25:20.210Z,56.5
2017-08-07T00:26:22.623Z,56.5
2017-08-07T00:27:25.043Z,56.5
2017-08-07T00:28:27.463Z,56.5
2017-08-07T00:29:29.869Z,56.5
2017-08-07T00:30:32.632Z,56.5
2017-08-07T00:31:35.054Z,56.5
2017-08-07T00:32:37.486Z,56.4
2017-08-07T00:33:40.579Z,56.6
2017-08-07T00:34:42.997Z,56.6
2017-08-07T00:35:45.416Z,56.7
2017-08-07T00:36:48.185Z,56.7
2017-08-07T00:37:50.607Z,56.8
2017-08-07T00:38:53.709Z,56.6
2017-08-07T00:39:56.453Z,56.7
2017-08-07T00:40:58.864Z,56.6
2017-08-07T00:42:01.299Z,56.6
2017-08-07T00:43:04.061Z,56.6
2017-08-07T00:44:06.473Z,56.6
2017-08-07T00:45:08.896Z,56.7
2017-08-07T00:46:11.317Z,56.7
2017-08-07T00:47:13.740Z,56.6
2017-08-07T00:48:16.493Z,56.8
2017-08-07T00:49:18.907Z,56.7
2017-08-07T00:50:21.666Z,56.7
2017-08-07T00:51:24.082Z,56.6
2017-08-07T00:52:26.505Z,56.6
2017-08-07T00:53:28.931Z,56.6
2017-08-07T00:54:31.668Z,56.6
2017-08-07T00:55:34.443Z,56.5
2017-08-07T00:56:36.859Z,56.5
2017-08-07T00:57:39.964Z,56.5
2017-08-07T00:58:42.391Z,56.4
2017-08-07T00:59:45.496Z,56.5
2017-08-07T01:00:47.915Z,56.4
2017-08-07T01:01:50.339Z,56.4
2017-08-07T01:02:53.106Z,56.4
2017-08-07T01:03:55.507Z,56.5
2017-08-07T01:04:57.922Z,56.5
2017-08-07T01:06:00.337Z,56.5
2017-08-07T01:07:03.440Z,56.6
2017-08-07T01:08:06.181Z,56.6
2017-08-07T01:09:08.598Z,56.6
2017-08-07T01:10:11.022Z,56.6
2017-08-07T01:11:13.783Z,56.6
2017-08-07T01:12:16.203Z,56.8
2017-08-07T01:13:18.616Z,56.7
2017-08-07T01:14:21.039Z,56.7
2017-08-07T01:15:23.456Z,56.8
2017-08-07T01:16:25.869Z,56.7
2017-08-07T01:17:28.315Z,56.8
2017-08-07T01:18:31.069Z,56.8
2017-08-07T01:19:33.820Z,56.7
2017-08-07T01:20:36.575Z,56.7
2017-08-07T01:21:38.993Z,56.8
2017-08-07T01:22:41.747Z,56.8
2017-08-07T01:23:44.168Z,56.8
2017-08-07T01:24:46.584Z,56.8
2017-08-07T01:25:49.000Z,56.8
2017-08-07T01:26:51.411Z,56.8
2017-08-07T01:27:53.826Z,56.8
2017-08-07T01:28:56.235Z,56.8
2017-08-07T01:29:58.675Z,56.8
2017-08-07T01:31:01.099Z,56.8
2017-08-07T01:32:03.861Z,56.8
2017-08-07T01:33:06.289Z,56.8
2017-08-07T01:34:08.704Z,56.7
2017-08-07T01:35:11.116Z,56.8
2017-08-07T01:36:13.530Z,56.7
2017-08-07T01:37:15.950Z,56.8
2017-08-07T01:38:18.372Z,56.8
2017-08-07T01:39:21.126Z,56.8
2017-08-07T01:40:24.246Z,56.8
2017-08-07T01:41:26.663Z,56.8
2017-08-07T01:42:29.111Z,56.9
2017-08-07T01:43:31.536Z,56.9
2017-08-07T01:44:33.942Z,56.9
2017-08-07T01:45:36.350Z,56.9
2017-08-07T01:46:39.462Z,56.8
2017-08-07T01:47:41.881Z,56.8
2017-08-07T01:48:44.297Z,56.9
2017-08-07T01:49:47.066Z,56.9
2017-08-07T01:50:49.479Z,57
2017-08-07T01:51:51.911Z,57
2017-08-07T01:52:54.321Z,56.9
2017-08-07T01:53:57.069Z,57
2017-08-07T01:54:59.827Z,57
2017-08-07T01:56:02.238Z,57.1
2017-08-07T01:57:04.656Z,57
2017-08-07T01:58:07.078Z,57
2017-08-07T01:59:09.844Z,57.1
2017-08-07T02:00:12.606Z,57
2017-08-07T02:01:15.059Z,57.1
2017-08-07T02:02:17.471Z,57.1
2017-08-07T02:03:19.883Z,57.1
2017-08-07T02:04:22.974Z,57.2
2017-08-07T02:05:25.392Z,57.1
2017-08-07T02:06:28.154Z,57.2
2017-08-07T02:07:30.573Z,57.2
2017-08-07T02:08:34.025Z,57.2
2017-08-07T02:09:36.438Z,57.1
2017-08-07T02:10:38.845Z,57.1
2017-08-07T02:11:41.281Z,57.2
2017-08-07T02:12:43.686Z,57.2
2017-08-07T02:13:46.110Z,57.3
2017-08-07T02:14:49.191Z,57.3
2017-08-07T02:15:51.610Z,57.3
2017-08-07T02:16:54.029Z,57.2
2017-08-07T02:17:56.470Z,57.2
2017-08-07T02:18:58.876Z,57.2
2017-08-07T02:20:01.305Z,57.3
2017-08-07T02:21:03.729Z,57.3
2017-08-07T02:22:06.819Z,57.3
2017-08-07T02:23:09.578Z,57.3
2017-08-07T02:24:12.009Z,57.4
2017-08-07T02:25:15.084Z,57.4
2017-08-07T02:26:18.192Z,57.3
2017-08-07T02:27:20.597Z,57.4
2017-08-07T02:28:23.011Z,57.4
2017-08-07T02:29:25.423Z,57.4
2017-08-07T02:30:28.185Z,57.5
2017-08-07T02:31:30.939Z,57.4
2017-08-07T02:32:33.359Z,57.4
2017-08-07T02:33:35.773Z,57.4
2017-08-07T02:34:38.204Z,57.6
2017-08-07T02:35:40.960Z,57.4
2017-08-07T02:36:44.047Z,57.5
2017-08-07T02:37:46.465Z,57.5
2017-08-07T02:38:49.563Z,57.5
2017-08-07T02:39:51.993Z,57.4
2017-08-07T02:40:54.743Z,57.4
2017-08-07T02:41:57.499Z,57.5
2017-08-07T02:43:00.266Z,57.5
2017-08-07T02:44:03.028Z,57.4
2017-08-07T02:45:06.120Z,57.5
2017-08-07T02:46:08.865Z,57.6
2017-08-07T02:47:11.281Z,57.7
2017-08-07T02:48:14.039Z,57.6
2017-08-07T02:49:17.157Z,57.7
2017-08-07T02:50:19.576Z,57.7
2017-08-07T02:51:22.319Z,57.8
2017-08-07T02:52:25.081Z,57.6
2017-08-07T02:53:27.852Z,57.6
2017-08-07T02:54:30.608Z,57.7
2017-08-07T02:55:33.362Z,57.7
2017-08-07T02:56:35.789Z,57.7
2017-08-07T02:57:38.201Z,57.9
2017-08-07T02:58:40.627Z,57.8
2017-08-07T02:59:43.041Z,57.8
2017-08-07T03:00:45.439Z,57.8
2017-08-07T03:01:48.209Z,57.8
2017-08-07T03:02:50.991Z,57.7
2017-08-07T03:03:53.412Z,57.8
2017-08-07T03:04:56.163Z,57.7
2017-08-07T03:05:58.576Z,57.8
2017-08-07T03:07:01.692Z,57.9
2017-08-07T03:08:04.096Z,57.7
2017-08-07T03:09:07.194Z,57.9
2017-08-07T03:10:09.631Z,57.9
2017-08-07T03:11:12.390Z,57.8
2017-08-07T03:12:15.149Z,57.7
2017-08-07T03:13:17.905Z,57.8
2017-08-07T03:14:20.666Z,57.7
2017-08-07T03:15:23.427Z,57.8
2017-08-07T03:16:25.846Z,57.9
2017-08-07T03:17:28.600Z,57.9
2017-08-07T03:18:31.357Z,58
2017-08-07T03:19:33.768Z,58
2017-08-07T03:20:36.525Z,58
2017-08-07T03:21:39.298Z,58
2017-08-07T03:22:42.061Z,58
2017-08-07T03:23:44.476Z,58
2017-08-07T03:24:46.921Z,58
2017-08-07T03:25:49.327Z,58.2
2017-08-07T03:26:51.741Z,58
2017-08-07T03:27:54.828Z,58
2017-08-07T03:28:57.590Z,58
2017-08-07T03:30:00.025Z,58
2017-08-07T03:31:02.795Z,58
2017-08-07T03:32:05.208Z,58.1
2017-08-07T03:33:07.626Z,58
2017-08-07T03:34:10.044Z,58
2017-08-07T03:35:12.451Z,58
2017-08-07T03:36:15.192Z,58.4
2017-08-07T03:37:17.977Z,58.3
2017-08-07T03:38:21.063Z,58.2
2017-08-07T03:39:23.474Z,58.1
2017-08-07T03:40:25.900Z,58.3
2017-08-07T03:41:28.324Z,58.3
2017-08-07T03:42:31.116Z,58.3
2017-08-07T03:43:33.881Z,58.3
2017-08-07T03:44:36.290Z,58.3
2017-08-07T03:45:39.051Z,58.3
2017-08-07T03:46:41.469Z,58.2
2017-08-07T03:47:43.889Z,58.1
2017-08-07T03:48:46.310Z,58.3
2017-08-07T03:49:48.723Z,58.2
2017-08-07T03:50:51.135Z,58.2
2017-08-07T03:51:54.225Z,58.2
2017-08-07T03:52:56.643Z,58.2
2017-08-07T03:53:59.058Z,58.2
2017-08-07T03:55:01.805Z,58.2
2017-08-07T03:56:04.551Z,58.1
2017-08-07T03:57:06.960Z,58.3
2017-08-07T03:58:09.426Z,58.2
2017-08-07T03:59:12.836Z,58.4
2017-08-07T04:00:15.602Z,58.3
2017-08-07T04:01:18.024Z,58.4
2017-08-07T04:02:20.427Z,58.4
2017-08-07T04:03:22.841Z,58.3
2017-08-07T04:04:25.264Z,58.4
2017-08-07T04:05:28.029Z,58.2
2017-08-07T04:06:30.781Z,58.3
2017-08-07T04:07:33.563Z,58.4
2017-08-07T04:08:36.079Z,58.5
2017-08-07T04:09:38.956Z,58.6
2017-08-07T04:10:41.492Z,58.6
2017-08-07T04:11:44.374Z,58.7
2017-08-07T04:12:47.233Z,58.6
2017-08-07T04:13:50.412Z,58.6
2017-08-07T04:14:52.922Z,58.6
2017-08-07T04:15:55.518Z,58.5
2017-08-07T04:16:58.380Z,58.5
2017-08-07T04:18:01.223Z,58.4
2017-08-07T04:19:04.439Z,58.3
2017-08-07T04:20:06.952Z,58.4
2017-08-07T04:21:09.465Z,58.5
2017-08-07T04:22:12.020Z,58.3
2017-08-07T04:23:14.873Z,58.2
2017-08-07T04:24:18.059Z,58.1
2017-08-07T04:25:20.595Z,58
2017-08-07T04:26:24.137Z,58
2017-08-07T04:27:27.008Z,57.9
2017-08-07T04:28:29.523Z,57.9
2017-08-07T04:29:32.377Z,57.9
2017-08-07T04:30:34.974Z,57.9
2017-08-07T04:31:37.503Z,57.9
2017-08-07T04:32:40.360Z,58
2017-08-07T04:33:43.225Z,57.9
2017-08-07T04:34:45.760Z,58
2017-08-07T04:35:48.283Z,58
2017-08-07T04:36:51.135Z,58
2017-08-07T04:37:53.645Z,58.1
2017-08-07T04:38:56.161Z,58
2017-08-07T04:39:58.688Z,58.1
2017-08-07T04:41:01.180Z,58.1
2017-08-07T04:42:04.063Z,58.2
2017-08-07T04:43:07.629Z,58.2
2017-08-07T04:44:10.829Z,58.2
2017-08-07T04:45:14.013Z,58.2
2017-08-07T04:46:16.848Z,58.2
2017-08-07T04:47:20.067Z,58.2
2017-08-07T04:48:22.914Z,58.2
2017-08-07T04:49:25.421Z,58.3
2017-08-07T04:50:27.916Z,58.3
2017-08-07T04:51:30.422Z,58.4
2017-08-07T04:52:33.291Z,58.3
2017-08-07T04:53:35.807Z,58.4
2017-08-07T04:54:38.657Z,58.4
2017-08-07T04:55:41.533Z,58.4
2017-08-07T04:56:44.043Z,58.4
2017-08-07T04:57:46.561Z,58.4
2017-08-07T04:58:49.426Z,58.4
2017-08-07T04:59:51.943Z,58.3
2017-08-07T05:00:54.812Z,58.2
2017-08-07T05:01:57.656Z,58.2
2017-08-07T05:03:00.190Z,58.2
2017-08-07T05:04:03.037Z,58.3
2017-08-07T05:05:05.567Z,58.2
2017-08-07T05:06:08.462Z,58.3
2017-08-07T05:07:11.301Z,58.2
2017-08-07T05:08:14.157Z,58.3
2017-08-07T05:09:16.638Z,58.3
2017-08-07T05:10:19.153Z,58.3
2017-08-07T05:11:21.682Z,58.2
2017-08-07T05:12:24.170Z,58.3
2017-08-07T05:13:26.690Z,58.3
2017-08-07T05:14:29.205Z,58.4
2017-08-07T05:15:31.739Z,58.3
2017-08-07T05:16:34.254Z,58.2
2017-08-07T05:17:37.441Z,58.2
2017-08-07T05:18:40.299Z,58.3
2017-08-07T05:19:42.813Z,58.2
2017-08-07T05:20:45.669Z,58.2
2017-08-07T05:21:48.172Z,58.2
2017-08-07T05:22:51.026Z,58.2
2017-08-07T05:23:53.549Z,58.2
2017-08-07T05:24:56.382Z,58.1
2017-08-07T05:25:59.575Z,58.2
2017-08-07T05:27:02.082Z,58.2
2017-08-07T05:28:04.592Z,58.1
2017-08-07T05:29:07.775Z,58.2
2017-08-07T05:30:10.284Z,58.1
2017-08-07T05:31:13.110Z,58.2
2017-08-07T05:32:15.622Z,58.1
2017-08-07T05:33:18.475Z,58.2
2017-08-07T05:34:20.987Z,58.2
2017-08-07T05:35:23.501Z,58.2
2017-08-07T05:36:26.014Z,58.1
2017-08-07T05:37:28.857Z,58.1
2017-08-07T05:38:31.357Z,58.2
2017-08-07T05:39:33.884Z,58.2
2017-08-07T05:40:36.389Z,58.3
2017-08-07T05:41:38.887Z,58.2
2017-08-07T05:42:41.392Z,58.2
2017-08-07T05:43:44.232Z,58.1
2017-08-07T05:44:46.747Z,58.3
2017-08-07T05:45:49.271Z,58.2
2017-08-07T05:46:51.773Z,58.2
2017-08-07T05:47:55.016Z,58.2
2017-08-07T05:48:57.513Z,58.2
2017-08-07T05:50:00.711Z,58.2
2017-08-07T05:51:03.892Z,58.1
2017-08-07T05:52:06.414Z,58.3
2017-08-07T05:53:08.921Z,58.1
2017-08-07T05:54:11.427Z,58.1
2017-08-07T05:55:13.921Z,58.1
2017-08-07T05:56:16.454Z,58.1
2017-08-07T05:57:19.640Z,58
2017-08-07T05:58:22.150Z,58
2017-08-07T05:59:24.998Z,57.8
2017-08-07T06:00:28.565Z,57.9
2017-08-07T06:01:31.091Z,57.7
2017-08-07T06:02:33.575Z,57.7
2017-08-07T06:03:36.104Z,57.7
2017-08-07T06:04:38.638Z,57.7
2017-08-07T06:05:41.485Z,57.7
2017-08-07T06:06:43.990Z,57.8
2017-08-07T06:07:46.515Z,57.6
2017-08-07T06:08:49.360Z,57.6
2017-08-07T06:09:51.880Z,57.6
2017-08-07T06:10:54.395Z,57.7
2017-08-07T06:11:56.925Z,57.7
2017-08-07T06:12:59.781Z,57.8
2017-08-07T06:14:02.644Z,57.8
2017-08-07T06:15:05.517Z,57.7
2017-08-07T06:16:08.705Z,57.7
2017-08-07T06:17:11.235Z,57.7
2017-08-07T06:18:14.102Z,57.6
2017-08-07T06:19:16.988Z,57.7
2017-08-07T06:20:19.833Z,57.6
2017-08-07T06:21:23.022Z,57.5
2017-08-07T06:22:26.206Z,57.5
2017-08-07T06:23:28.746Z,57.4
2017-08-07T06:24:31.602Z,57.5
2017-08-07T06:25:34.147Z,57.5
2017-08-07T06:26:36.657Z,57.4
2017-08-07T06:27:39.508Z,57.3
2017-08-07T06:28:42.373Z,57.3
2017-08-07T06:29:45.908Z,57.2
2017-08-07T06:30:48.400Z,57.3
2017-08-07T06:31:51.258Z,57.3
2017-08-07T06:32:54.103Z,57.3
2017-08-07T06:33:56.635Z,57.3
2017-08-07T06:34:59.153Z,57.2
2017-08-07T06:36:01.657Z,57.4
2017-08-07T06:37:04.174Z,57.4
2017-08-07T06:38:06.680Z,57.5
2017-08-07T06:39:09.182Z,57.3
2017-08-07T06:40:11.723Z,57.3
2017-08-07T06:41:14.236Z,57.3
2017-08-07T06:42:16.761Z,57.3
2017-08-07T06:43:19.973Z,57.2
2017-08-07T06:44:22.479Z,57.2
2017-08-07T06:45:24.976Z,57.2
2017-08-07T06:46:27.491Z,57.2
2017-08-07T06:47:30.322Z,57.2
2017-08-07T06:48:32.828Z,57.2
2017-08-07T06:49:35.336Z,57.1
2017-08-07T06:50:37.842Z,57.2
2017-08-07T06:51:40.691Z,57.2
2017-08-07T06:52:43.885Z,57.1
2017-08-07T06:53:46.751Z,57.2
2017-08-07T06:54:49.277Z,57.2
2017-08-07T06:55:52.152Z,57.1
2017-08-07T06:56:55.007Z,57.1
2017-08-07T06:57:57.521Z,57.1
2017-08-07T06:59:01.078Z,57.1
2017-08-07T07:00:03.591Z,57
2017-08-07T07:01:06.448Z,57
2017-08-07T07:02:08.970Z,57
2017-08-07T07:03:11.495Z,56.9
2017-08-07T07:04:13.991Z,57.1
2017-08-07T07:05:16.507Z,56.9
2017-08-07T07:06:19.030Z,57
2017-08-07T07:07:21.893Z,56.8
2017-08-07T07:08:24.420Z,56.7
2017-08-07T07:09:27.249Z,56.7
2017-08-07T07:10:29.775Z,56.8
2017-08-07T07:11:32.298Z,56.8
2017-08-07T07:12:35.148Z,56.7
2017-08-07T07:13:37.705Z,56.8
2017-08-07T07:14:40.552Z,56.7
2017-08-07T07:15:43.059Z,56.8
2017-08-07T07:16:45.926Z,56.6
2017-08-07T07:17:48.784Z,56.5
2017-08-07T07:18:51.287Z,56.4
2017-08-07T07:19:54.141Z,56.4
2017-08-07T07:20:57.014Z,56.5
2017-08-07T07:21:59.541Z,56.5
2017-08-07T07:23:02.078Z,56.5
2017-08-07T07:24:05.284Z,56.4
2017-08-07T07:25:07.798Z,56.5
2017-08-07T07:26:10.653Z,56.4
2017-08-07T07:27:13.510Z,56.4
2017-08-07T07:28:16.027Z,56.4
2017-08-07T07:29:18.892Z,56.4
2017-08-07T07:30:21.419Z,56.3
2017-08-07T07:31:24.593Z,56.3
2017-08-07T07:32:27.466Z,56.2
2017-08-07T07:33:30.001Z,56.1
2017-08-07T07:34:32.878Z,56.2
2017-08-07T07:35:35.385Z,56.2
2017-08-07T07:36:37.903Z,56
2017-08-07T07:37:40.763Z,55.9
2017-08-07T07:38:43.297Z,55.8
2017-08-07T07:39:45.810Z,55.8
2017-08-07T07:40:48.314Z,55.9
2017-08-07T07:41:50.827Z,55.9
2017-08-07T07:42:53.353Z,55.9
2017-08-07T07:43:56.221Z,56
2017-08-07T07:44:59.405Z,56
2017-08-07T07:46:02.275Z,55.9
2017-08-07T07:47:04.777Z,56
2017-08-07T07:48:07.301Z,55.9
2017-08-07T07:49:10.826Z,55.8
2017-08-07T07:50:13.351Z,55.7
2017-08-07T07:51:16.238Z,55.8
2017-08-07T07:52:18.768Z,55.8
2017-08-07T07:53:21.639Z,55.8
2017-08-07T07:54:24.170Z,55.7
2017-08-07T07:55:27.052Z,55.5
2017-08-07T07:56:29.904Z,55.4
2017-08-07T07:57:32.423Z,55.3
2017-08-07T07:58:34.945Z,55.5
2017-08-07T07:59:38.128Z,55.5
2017-08-07T08:00:41.347Z,55.5
2017-08-07T08:01:43.876Z,55.5
2017-08-07T08:02:46.385Z,55.5
2017-08-07T08:03:48.900Z,55.4
2017-08-07T08:04:51.755Z,55.4
2017-08-07T08:05:54.979Z,55.4
2017-08-07T08:06:57.836Z,55.3
2017-08-07T08:08:00.364Z,55.3
2017-08-07T08:09:02.880Z,55.2
2017-08-07T08:10:05.754Z,55.2
2017-08-07T08:11:08.940Z,55.1
2017-08-07T08:12:11.789Z,55.1
2017-08-07T08:13:14.305Z,55.1
2017-08-07T08:14:16.847Z,55.2
2017-08-07T08:15:19.712Z,55.2
2017-08-07T08:16:22.224Z,55.1
2017-08-07T08:17:24.746Z,55
2017-08-07T08:18:27.266Z,55.1
2017-08-07T08:19:30.127Z,55
2017-08-07T08:20:32.674Z,54.8
2017-08-07T08:21:35.867Z,54.8
2017-08-07T08:22:38.717Z,54.8
2017-08-07T08:23:41.231Z,54.2
2017-08-07T08:24:43.744Z,54.4
2017-08-07T08:25:46.941Z,54.4
2017-08-07T08:26:50.155Z,54.5
2017-08-07T08:27:53.005Z,54.4
2017-08-07T08:28:55.879Z,54.4
2017-08-07T08:29:58.757Z,54.4
2017-08-07T08:31:01.281Z,54.4
2017-08-07T08:32:03.808Z,54.5
2017-08-07T08:33:06.339Z,54.5
2017-08-07T08:34:08.851Z,54.5
2017-08-07T08:35:11.357Z,54.6
2017-08-07T08:36:14.554Z,54.6
2017-08-07T08:37:17.768Z,54.7
2017-08-07T08:38:20.276Z,54.7
2017-08-07T08:39:23.136Z,54.7
2017-08-07T08:40:25.650Z,54.7
2017-08-07T08:41:28.175Z,54.8
2017-08-07T08:42:30.708Z,54.8
2017-08-07T08:43:33.236Z,54.7
2017-08-07T08:44:35.740Z,54.2
2017-08-07T08:45:38.612Z,54.1
2017-08-07T08:46:41.499Z,54
2017-08-07T08:47:44.018Z,54.1
2017-08-07T08:48:46.884Z,53.8
2017-08-07T08:49:49.720Z,53.9
2017-08-07T08:50:52.578Z,53.9
2017-08-07T08:51:55.119Z,53.8
2017-08-07T08:52:57.630Z,53.8
2017-08-07T08:54:00.518Z,53.8
2017-08-07T08:55:03.377Z,53.8
2017-08-07T08:56:05.908Z,53.7
2017-08-07T08:57:09.109Z,53.7
2017-08-07T08:58:11.635Z,53.7
2017-08-07T08:59:14.141Z,53.6
2017-08-07T09:00:17.353Z,53.5
2017-08-07T09:01:20.557Z,53.6
2017-08-07T09:02:23.758Z,53.6
2017-08-07T09:03:26.271Z,53.6
2017-08-07T09:04:29.151Z,53.5
2017-08-07T09:05:32.006Z,53.3
2017-08-07T09:06:34.546Z,53.1
2017-08-07T09:07:37.773Z,53
2017-08-07T09:08:40.299Z,52.9
2017-08-07T09:09:43.537Z,53
2017-08-07T09:10:46.067Z,53
2017-08-07T09:11:48.943Z,53.1
2017-08-07T09:12:51.804Z,52.9
2017-08-07T09:13:54.324Z,52.9
2017-08-07T09:14:56.840Z,52.8
2017-08-07T09:15:59.711Z,52.8
2017-08-07T09:17:03.593Z,53
2017-08-07T09:18:06.806Z,53
2017-08-07T09:19:09.664Z,52.8
2017-08-07T09:20:12.525Z,52.7
2017-08-07T09:21:15.039Z,52.6
2017-08-07T09:22:17.553Z,52.5
2017-08-07T09:23:20.067Z,52.4
2017-08-07T09:24:22.926Z,52.3
2017-08-07T09:25:25.831Z,52.4
2017-08-07T09:26:28.367Z,52.5
2017-08-07T09:27:30.897Z,52.6
2017-08-07T09:28:33.429Z,52.7
2017-08-07T09:29:35.946Z,52.5
2017-08-07T09:30:38.452Z,52.3
2017-08-07T09:31:41.660Z,52
2017-08-07T09:32:44.180Z,51.8
2017-08-07T09:33:46.715Z,51.9
2017-08-07T09:34:49.578Z,52
2017-08-07T09:35:52.441Z,51.9
2017-08-07T09:36:54.965Z,51.4
2017-08-07T09:37:57.489Z,51.4
2017-08-07T09:39:00.346Z,51.5
2017-08-07T09:40:03.223Z,51.2
2017-08-07T09:41:06.764Z,51.3
2017-08-07T09:42:09.297Z,51.5
2017-08-07T09:43:11.830Z,51.5
2017-08-07T09:44:14.350Z,51.4
2017-08-07T09:45:17.583Z,50.9
2017-08-07T09:46:20.442Z,50.5
2017-08-07T09:47:22.974Z,50.3
2017-08-07T09:48:25.501Z,50.3
2017-08-07T09:49:28.010Z,50.3
2017-08-07T09:50:30.883Z,50.3
2017-08-07T09:51:33.748Z,50.2
2017-08-07T09:52:36.630Z,50.1
2017-08-07T09:53:39.174Z,50
2017-08-07T09:54:42.022Z,49.9
2017-08-07T09:55:44.877Z,49.8
2017-08-07T09:56:47.761Z,49.9
2017-08-07T09:57:50.626Z,49.8
2017-08-07T09:58:53.830Z,49.9
2017-08-07T09:59:56.710Z,50.2
2017-08-07T10:00:59.577Z,50.9
2017-08-07T10:02:02.441Z,51.5
2017-08-07T10:03:05.293Z,51.6
2017-08-07T10:04:08.154Z,51.9
2017-08-07T10:05:10.686Z,52.2
2017-08-07T10:06:13.200Z,52.1
2017-08-07T10:07:15.748Z,51.8
2017-08-07T10:08:18.244Z,52
2017-08-07T10:09:20.759Z,52.3
2017-08-07T10:10:23.640Z,52.3
2017-08-07T10:11:26.525Z,52.2
2017-08-07T10:12:29.045Z,51.9
2017-08-07T10:13:31.570Z,51.6
2017-08-07T10:14:34.425Z,51.5
2017-08-07T10:15:37.638Z,51.6
2017-08-07T10:16:40.854Z,51.6
2017-08-07T10:17:43.389Z,51.6
2017-08-07T10:18:45.904Z,51.6
2017-08-07T10:19:48.786Z,50.9
2017-08-07T10:20:51.638Z,50.3
2017-08-07T10:21:54.507Z,49.7
2017-08-07T10:22:57.350Z,49.3
2017-08-07T10:23:59.866Z,49
2017-08-07T10:25:02.394Z,48.9
2017-08-07T10:26:05.593Z,48.9
2017-08-07T10:27:08.113Z,49.2
2017-08-07T10:28:10.981Z,49.3
2017-08-07T10:29:13.510Z,49.5
2017-08-07T10:30:16.033Z,49.7
2017-08-07T10:31:19.243Z,50.2
2017-08-07T10:32:21.758Z,50.5
2017-08-07T10:33:24.283Z,50.4
2017-08-07T10:34:27.178Z,50.4
2017-08-07T10:35:29.692Z,50.3
2017-08-07T10:36:32.557Z,50.2
2017-08-07T10:37:35.077Z,50
2017-08-07T10:38:37.606Z,50
2017-08-07T10:39:40.476Z,49.9
2017-08-07T10:40:43.006Z,49.7
2017-08-07T10:41:45.873Z,49.7
2017-08-07T10:42:48.403Z,49.6
2017-08-07T10:43:51.267Z,49.2
2017-08-07T10:44:53.783Z,49
2017-08-07T10:45:56.331Z,49
2017-08-07T10:46:58.834Z,48.9
2017-08-07T10:48:01.366Z,48.7
2017-08-07T10:49:04.236Z,48.7
2017-08-07T10:50:06.772Z,48.8
2017-08-07T10:51:09.301Z,48.8
2017-08-07T10:52:12.174Z,48.7
2017-08-07T10:53:14.692Z,48.6
2017-08-07T10:54:17.567Z,48.4
2017-08-07T10:55:20.107Z,48.3
2017-08-07T10:56:22.606Z,48.2
2017-08-07T10:57:25.170Z,47.7
2017-08-07T10:58:27.690Z,47.4
2017-08-07T10:59:30.892Z,47.4
2017-08-07T11:00:34.106Z,46.8
2017-08-07T11:01:36.968Z,46.5
2017-08-07T11:02:39.505Z,46.2
2017-08-07T11:03:42.032Z,46.2
2017-08-07T11:04:44.546Z,46.7
2017-08-07T11:05:47.082Z,46.5
2017-08-07T11:06:49.580Z,46.3
2017-08-07T11:07:52.119Z,46.4
2017-08-07T11:08:54.983Z,46.4
2017-08-07T11:09:57.851Z,46.6
2017-08-07T11:11:01.422Z,46.9
2017-08-07T11:12:04.286Z,46.8
2017-08-07T11:13:07.154Z,46.4
2017-08-07T11:14:09.689Z,46.5
2017-08-07T11:15:12.224Z,46.8
2017-08-07T11:16:14.738Z,46.8
2017-08-07T11:17:17.613Z,46.8
2017-08-07T11:18:20.125Z,46.8
2017-08-07T11:19:23.002Z,46.9
2017-08-07T11:20:25.889Z,46.9
2017-08-07T11:21:28.730Z,46.6
2017-08-07T11:22:31.593Z,46
2017-08-07T11:23:34.113Z,45.7
2017-08-07T11:24:36.642Z,45.5
2017-08-07T11:25:39.171Z,45.7
2017-08-07T11:26:41.700Z,45.6
2017-08-07T11:27:44.550Z,45.6
2017-08-07T11:28:47.078Z,45.4
2017-08-07T11:29:50.301Z,45
2017-08-07T11:30:52.831Z,44.8
2017-08-07T11:31:55.323Z,44.7
2017-08-07T11:32:57.858Z,44.7
2017-08-07T11:34:00.401Z,44.6
2017-08-07T11:35:03.264Z,44.4
2017-08-07T11:36:06.132Z,44.5
2017-08-07T11:37:08.645Z,44.7
2017-08-07T11:38:11.886Z,44.6
2017-08-07T11:39:15.112Z,44.5
2017-08-07T11:40:17.640Z,44.7
2017-08-07T11:41:20.860Z,44.5
2017-08-07T11:42:24.092Z,44.1
2017-08-07T11:43:26.623Z,43.8
2017-08-07T11:44:30.219Z,43.7
2017-08-07T11:45:32.755Z,43.4
2017-08-07T11:46:35.612Z,43.4
2017-08-07T11:47:38.149Z,43.3
2017-08-07T11:48:40.671Z,43.4
2017-08-07T11:49:43.195Z,43.2
2017-08-07T11:50:45.718Z,43.2
2017-08-07T11:51:48.946Z,43
2017-08-07T11:52:51.837Z,43
2017-08-07T11:53:54.378Z,43.2
2017-08-07T11:54:56.898Z,43.2
2017-08-07T11:55:59.457Z,43
2017-08-07T11:57:02.320Z,43.1
2017-08-07T11:58:04.865Z,43.4
2017-08-07T11:59:07.736Z,43.4
2017-08-07T12:00:10.267Z,43.1
2017-08-07T12:01:12.799Z,43
2017-08-07T12:02:15.326Z,42.9
2017-08-07T12:03:18.207Z,42.9
2017-08-07T12:04:21.077Z,42.9
2017-08-07T12:05:23.624Z,43
2017-08-07T12:06:26.474Z,43
2017-08-07T12:07:29.031Z,43.2
2017-08-07T12:08:31.577Z,43.2
2017-08-07T12:09:34.439Z,43.5
2017-08-07T12:10:36.971Z,43.5
2017-08-07T12:11:39.848Z,43.7
2017-08-07T12:12:43.059Z,44
2017-08-07T12:13:45.937Z,44
2017-08-07T12:14:48.824Z,44.1
2017-08-07T12:15:51.372Z,44.1
2017-08-07T12:16:53.904Z,44.1
2017-08-07T12:17:56.821Z,44.1
2017-08-07T12:18:59.348Z,44
2017-08-07T12:20:01.898Z,43.8
2017-08-07T12:21:05.121Z,43.4
2017-08-07T12:22:07.670Z,43.1
2017-08-07T12:23:10.225Z,43
2017-08-07T12:24:12.803Z,42.7
2017-08-07T12:25:15.658Z,42.8
2017-08-07T12:26:19.226Z,42.7
2017-08-07T12:27:21.803Z,42.7
2017-08-07T12:28:24.679Z,42.7
2017-08-07T12:29:27.217Z,42.7
2017-08-07T12:30:30.084Z,42.7
2017-08-07T12:31:32.609Z,42.6
2017-08-07T12:32:35.157Z,42.3
2017-08-07T12:33:38.008Z,42.2
2017-08-07T12:34:40.550Z,42.3
2017-08-07T12:35:43.512Z,42.1
2017-08-07T12:36:46.596Z,42.2
2017-08-07T12:37:49.474Z,42
2017-08-07T12:38:52.003Z,42.1
2017-08-07T12:39:55.218Z,42.1
2017-08-07T12:40:58.115Z,42.2
2017-08-07T12:42:00.635Z,42.2
2017-08-07T12:43:03.511Z,42.2
2017-08-07T12:44:06.041Z,42.4
2017-08-07T12:45:08.780Z,42.4
2017-08-07T12:46:11.860Z,42.3
2017-08-07T12:47:14.753Z,42.1
2017-08-07T12:48:17.288Z,41.9
2017-08-07T12:49:19.829Z,41.7
2017-08-07T12:50:22.757Z,41.6
2017-08-07T12:51:25.283Z,41.7
2017-08-07T12:52:27.799Z,41.7
2017-08-07T12:53:30.338Z,41.7
2017-08-07T12:54:33.205Z,41.9
2017-08-07T12:55:35.750Z,42.2
2017-08-07T12:56:38.287Z,42.3
2017-08-07T12:57:40.810Z,42.2
2017-08-07T12:58:43.371Z,42.2
2017-08-07T12:59:45.912Z,42.1
2017-08-07T13:00:48.440Z,42
2017-08-07T13:01:51.331Z,42
2017-08-07T13:02:53.878Z,41.8
2017-08-07T13:03:57.081Z,41.5
2017-08-07T13:05:00.304Z,41.2
2017-08-07T13:06:03.537Z,41.2
2017-08-07T13:07:06.063Z,41.2
2017-08-07T13:08:08.608Z,41.2
2017-08-07T13:09:11.498Z,41.4
2017-08-07T13:10:14.024Z,41.3
2017-08-07T13:11:16.551Z,41.3
2017-08-07T13:12:19.101Z,41.5
2017-08-07T13:13:21.628Z,41.7
2017-08-07T13:14:24.856Z,41.7
2017-08-07T13:15:27.722Z,41.6
2017-08-07T13:16:30.291Z,41.5
2017-08-07T13:17:33.170Z,41.4
2017-08-07T13:18:36.398Z,41.2
2017-08-07T13:19:39.255Z,41.2
2017-08-07T13:20:41.813Z,41.1
2017-08-07T13:21:44.359Z,41.1
2017-08-07T13:22:47.582Z,41.1
2017-08-07T13:23:50.128Z,40.9
2017-08-07T13:24:53.009Z,40.7
2017-08-07T13:25:55.553Z,40.8
2017-08-07T13:26:58.094Z,40.7
2017-08-07T13:28:00.973Z,40.6
2017-08-07T13:29:03.499Z,40.4
2017-08-07T13:30:06.148Z,40.2
2017-08-07T13:31:09.011Z,40.1
2017-08-07T13:32:11.557Z,40.1
2017-08-07T13:33:14.102Z,40.2
2017-08-07T13:34:16.982Z,40
2017-08-07T13:35:19.838Z,40
2017-08-07T13:36:22.369Z,40
2017-08-07T13:37:25.236Z,39.9
2017-08-07T13:38:27.777Z,39.7
2017-08-07T13:39:30.320Z,39.6
2017-08-07T13:40:32.895Z,39.6
2017-08-07T13:41:35.453Z,39.4
2017-08-07T13:42:38.725Z,39.7
2017-08-07T13:43:41.601Z,39.7
2017-08-07T13:44:44.160Z,39.8
2017-08-07T13:45:46.705Z,40
2017-08-07T13:46:49.929Z,39.8
2017-08-07T13:47:52.467Z,39.8
2017-08-07T13:48:55.004Z,39.8
2017-08-07T13:49:57.537Z,39.8
2017-08-07T13:51:00.808Z,39.6
2017-08-07T13:52:03.687Z,39.5
2017-08-07T13:53:06.503Z,39.7
2017-08-07T13:54:09.037Z,39.9
2017-08-07T13:55:12.266Z,40
2017-08-07T13:56:15.127Z,39.9
2017-08-07T13:57:17.649Z,39.6
2017-08-07T13:58:20.531Z,39.6
2017-08-07T13:59:23.438Z,39.7